createdAt,value
2018-04-30T00:01:08.309Z,16.50
2018-04-30T00:03:37.109Z,16.50
2018-04-30T00:06:05.557Z,16.50
2018-04-30T00:08:33.964Z,16.50
2018-04-30T00:11:02.365Z,16.50
2018-04-30T00:13:30.727Z,16.50
2018-04-30T00:15:59.088Z,16.50
2018-04-30T00:18:27.500Z,16.40
2018-04-30T00:20:56.675Z,16.40
2018-04-30T00:23:25.121Z,16.40
2018-04-30T00:25:53.818Z,16.30
2018-04-30T00:28:22.329Z,16.30
2018-04-30T00:30:50.727Z,16.30
2018-04-30T00:33:19.124Z,16.30
2018-04-30T00:35:48.228Z,16.30
2018-04-30T00:38:16.648Z,16.30
2018-04-30T00:40:45.040Z,16.30
2018-04-30T00:43:14.226Z,16.30
2018-04-30T00:45:42.742Z,16.30
2018-04-30T00:48:11.148Z,16.30
2018-04-30T00:50:39.551Z,16.20
2018-04-30T00:53:07.961Z,16.30
2018-04-30T00:55:36.411Z,16.20
2018-04-30T00:58:04.750Z,16.20
2018-04-30T01:00:33.187Z,16.20
2018-04-30T01:03:01.784Z,16.20
2018-04-30T01:05:30.154Z,16.30
2018-04-30T01:07:58.651Z,16.20
2018-04-30T01:10:27.255Z,16.30
2018-04-30T01:12:55.679Z,16.20
2018-04-30T01:15:24.059Z,16.30
2018-04-30T01:17:52.419Z,16.20
2018-04-30T01:20:20.921Z,16.20
2018-04-30T01:22:49.465Z,16.20
2018-04-30T01:25:17.865Z,16.20
2018-04-30T01:27:47.114Z,16.20
2018-04-30T01:30:15.464Z,16.20
2018-04-30T01:32:44.641Z,16.20
2018-04-30T01:35:13.001Z,16.20
2018-04-30T01:37:42.129Z,16.20
2018-04-30T01:40:10.647Z,16.20
2018-04-30T01:42:39.604Z,16.20
2018-04-30T01:45:08.185Z,16.20
2018-04-30T01:47:36.569Z,16.20
2018-04-30T01:50:04.943Z,16.20
2018-04-30T01:52:33.429Z,16.20
2018-04-30T01:55:01.815Z,16.20
2018-04-30T01:57:30.286Z,16.20
2018-04-30T01:59:58.624Z,16.20
2018-04-30T02:02:27.576Z,16.20
2018-04-30T02:04:56.549Z,16.20
2018-04-30T02:07:25.551Z,16.10
2018-04-30T02:09:54.084Z,16.10
2018-04-30T02:12:22.433Z,16.10
2018-04-30T02:14:50.814Z,16.10
2018-04-30T02:17:20.159Z,16.10
2018-04-30T02:19:48.593Z,16.10
2018-04-30T02:22:17.912Z,16.00
2018-04-30T02:24:46.273Z,16.00
2018-04-30T02:27:14.683Z,16.00
2018-04-30T02:29:43.034Z,16.00
2018-04-30T02:32:11.415Z,15.90
2018-04-30T02:34:39.893Z,15.90
2018-04-30T02:37:08.263Z,15.80
2018-04-30T02:39:36.855Z,15.80
2018-04-30T02:42:05.219Z,15.70
2018-04-30T02:44:33.601Z,15.70
2018-04-30T02:47:02.122Z,15.70
2018-04-30T02:49:31.404Z,15.60
2018-04-30T02:52:00.374Z,15.60
2018-04-30T02:54:29.372Z,15.50
2018-04-30T02:56:58.088Z,15.50
2018-04-30T02:59:28.781Z,15.50
2018-04-30T03:01:57.270Z,15.50
2018-04-30T03:04:25.631Z,15.50
2018-04-30T03:06:54.011Z,15.50
2018-04-30T03:09:22.542Z,15.50
2018-04-30T03:11:51.919Z,15.40
2018-04-30T03:14:22.311Z,15.40
2018-04-30T03:16:50.901Z,15.40
2018-04-30T03:19:19.355Z,15.40
2018-04-30T03:21:47.814Z,15.40
2018-04-30T03:24:16.187Z,15.40
2018-04-30T03:26:44.545Z,15.40
2018-04-30T03:29:12.909Z,15.40
2018-04-30T03:31:41.332Z,15.40
2018-04-30T03:34:10.053Z,15.40
2018-04-30T03:36:38.735Z,15.40
2018-04-30T03:39:07.072Z,15.40
2018-04-30T03:41:35.527Z,15.40
2018-04-30T03:44:03.918Z,15.40
2018-04-30T03:46:33.143Z,15.40
2018-04-30T03:49:01.508Z,15.40
2018-04-30T03:51:29.907Z,15.40
2018-04-30T03:53:58.268Z,15.40
2018-04-30T03:56:27.065Z,15.40
2018-04-30T03:58:55.520Z,15.40
2018-04-30T04:01:35.690Z,15.40
2018-04-30T04:04:16.004Z,15.50
2018-04-30T04:06:52.075Z,15.50
2018-04-30T04:09:20.458Z,15.50
2018-04-30T04:11:48.941Z,15.50
2018-04-30T04:14:17.347Z,15.60
2018-04-30T04:16:46.522Z,15.60
2018-04-30T04:19:14.890Z,15.60
2018-04-30T04:21:44.001Z,15.60
2018-04-30T04:24:12.378Z,15.60
2018-04-30T04:26:40.844Z,15.60
2018-04-30T04:29:11.264Z,15.60
2018-04-30T04:31:40.728Z,15.60
2018-04-30T04:34:09.119Z,15.60
2018-04-30T04:36:37.853Z,15.70
2018-04-30T04:39:07.363Z,15.70
2018-04-30T04:41:35.856Z,15.70
2018-04-30T04:44:04.126Z,15.80
2018-04-30T04:46:32.499Z,15.80
2018-04-30T04:49:00.916Z,15.80
2018-04-30T04:51:29.339Z,15.90
2018-04-30T04:53:57.752Z,15.90
2018-04-30T04:56:26.159Z,15.90
2018-04-30T04:58:54.500Z,15.90
2018-04-30T05:01:22.876Z,15.90
2018-04-30T05:03:51.256Z,15.90
2018-04-30T05:06:19.606Z,15.80
2018-04-30T05:08:47.995Z,15.80
2018-04-30T05:11:16.531Z,15.80
2018-04-30T05:13:44.916Z,15.80
2018-04-30T05:16:13.293Z,15.90
2018-04-30T05:18:41.651Z,15.90
2018-04-30T05:21:10.043Z,15.80
2018-04-30T05:23:38.537Z,15.80
2018-04-30T05:26:06.988Z,15.80
2018-04-30T05:28:35.439Z,15.70
2018-04-30T05:31:04.658Z,15.70
2018-04-30T05:33:33.062Z,15.70
2018-04-30T05:36:01.473Z,15.70
2018-04-30T05:38:29.994Z,15.70
2018-04-30T05:40:58.379Z,15.70
2018-04-30T05:43:26.878Z,15.70
2018-04-30T05:45:56.168Z,15.80
2018-04-30T05:51:00.103Z,15.70
2018-04-30T05:53:29.176Z,15.70
2018-04-30T05:56:02.435Z,15.90
2018-04-30T05:58:30.854Z,15.80
2018-04-30T06:00:59.235Z,15.90
2018-04-30T06:03:28.339Z,16.20
2018-04-30T06:05:56.791Z,16.20
2018-04-30T06:08:26.216Z,16.40
2018-04-30T06:10:56.457Z,16.40
2018-04-30T06:13:25.052Z,16.50
2018-04-30T06:15:53.423Z,16.70
2018-04-30T06:18:21.815Z,16.80
2018-04-30T06:20:50.237Z,16.90
2018-04-30T06:23:18.780Z,17.00
2018-04-30T06:25:47.489Z,17.10
2018-04-30T06:28:15.830Z,17.20
2018-04-30T06:30:44.179Z,17.40
2018-04-30T06:33:13.384Z,17.60
2018-04-30T06:35:42.569Z,17.60
2018-04-30T06:38:10.873Z,17.60
2018-04-30T06:40:40.250Z,17.60
2018-04-30T06:43:08.600Z,17.70
2018-04-30T06:45:38.520Z,17.60
2018-04-30T06:48:07.796Z,17.60
2018-04-30T06:50:36.219Z,17.70
2018-04-30T06:53:04.632Z,17.90
2018-04-30T06:55:33.022Z,18.00
2018-04-30T06:58:01.383Z,18.20
2018-04-30T07:00:29.788Z,18.30
2018-04-30T07:02:58.138Z,18.40
2018-04-30T07:05:26.508Z,18.50
2018-04-30T07:07:55.650Z,18.70
2018-04-30T07:10:24.044Z,18.60
2018-04-30T07:12:52.391Z,18.70
2018-04-30T07:15:21.235Z,18.80
2018-04-30T07:17:49.567Z,18.80
2018-04-30T07:20:17.927Z,18.90
2018-04-30T07:22:46.285Z,18.90
2018-04-30T07:25:14.659Z,18.90
2018-04-30T07:27:43.139Z,19.00
2018-04-30T07:30:11.442Z,18.90
2018-04-30T07:32:39.854Z,18.80
2018-04-30T07:35:08.195Z,18.80
2018-04-30T07:37:37.307Z,18.80
2018-04-30T07:40:05.660Z,18.80
2018-04-30T07:42:34.052Z,18.70
2018-04-30T07:45:03.172Z,18.70
2018-04-30T07:47:31.534Z,18.70
2018-04-30T07:49:59.936Z,18.80
2018-04-30T07:52:28.289Z,18.90
2018-04-30T07:54:56.808Z,18.90
2018-04-30T07:57:25.160Z,18.70
2018-04-30T07:59:53.531Z,18.70
2018-04-30T08:02:22.697Z,18.20
2018-04-30T08:04:51.041Z,18.20
2018-04-30T08:07:19.369Z,18.10
2018-04-30T08:09:47.757Z,18.00
2018-04-30T08:12:16.858Z,17.80
2018-04-30T08:14:46.044Z,17.70
2018-04-30T08:17:14.340Z,17.70
2018-04-30T08:19:43.471Z,17.40
2018-04-30T08:22:11.916Z,17.30
2018-04-30T08:24:40.275Z,17.20
2018-04-30T08:27:08.631Z,17.20
2018-04-30T08:29:37.071Z,17.10
2018-04-30T08:32:05.426Z,17.00
2018-04-30T08:34:34.775Z,17.00
2018-04-30T08:37:03.121Z,17.00
2018-04-30T08:39:32.041Z,17.20
2018-04-30T08:42:00.394Z,17.30
2018-04-30T08:44:28.750Z,17.30
2018-04-30T08:46:57.862Z,17.20
2018-04-30T08:49:26.246Z,17.20
2018-04-30T08:51:54.611Z,17.30
2018-04-30T08:54:23.747Z,17.50
2018-04-30T08:56:52.099Z,17.50
2018-04-30T08:59:22.024Z,17.50
2018-04-30T09:01:50.426Z,17.40
2018-04-30T09:04:18.770Z,17.40
2018-04-30T09:06:47.888Z,17.50
2018-04-30T09:09:17.092Z,17.50
2018-04-30T09:11:45.447Z,17.40
2018-04-30T09:14:13.811Z,17.50
2018-04-30T09:16:42.934Z,17.40
2018-04-30T09:19:11.294Z,17.30
2018-04-30T09:21:40.410Z,17.40
2018-04-30T09:24:08.754Z,17.40
2018-04-30T09:26:38.055Z,17.30
2018-04-30T09:29:06.442Z,17.30
2018-04-30T09:31:34.949Z,17.20
2018-04-30T09:34:04.063Z,17.00
2018-04-30T09:36:32.396Z,17.00
2018-04-30T09:39:00.823Z,17.00
2018-04-30T09:41:29.195Z,17.00
2018-04-30T09:43:57.689Z,17.10
2018-04-30T09:46:26.063Z,17.20
2018-04-30T09:48:54.440Z,17.30
2018-04-30T09:51:22.813Z,17.30
2018-04-30T09:53:51.216Z,17.30
2018-04-30T09:56:19.654Z,17.40
2018-04-30T09:58:48.870Z,17.30
2018-04-30T10:01:17.236Z,17.30
2018-04-30T10:03:45.585Z,17.30
2018-04-30T10:06:13.929Z,17.30
2018-04-30T10:08:42.321Z,17.10
2018-04-30T10:11:11.579Z,17.10
2018-04-30T10:13:39.935Z,16.90
2018-04-30T10:16:09.048Z,16.70
2018-04-30T10:18:37.570Z,16.70
2018-04-30T10:21:05.906Z,16.60
2018-04-30T10:23:34.344Z,16.50
2018-04-30T10:26:02.659Z,16.40
2018-04-30T10:28:31.027Z,16.40
2018-04-30T10:31:00.174Z,16.10
2018-04-30T10:33:28.562Z,16.10
2018-04-30T10:35:56.934Z,16.10
2018-04-30T10:38:25.372Z,16.10
2018-04-30T10:40:53.789Z,16.00
2018-04-30T10:43:22.153Z,16.00
2018-04-30T10:45:50.572Z,16.00
2018-04-30T10:48:18.882Z,16.00
2018-04-30T10:50:48.000Z,16.00
2018-04-30T10:53:16.679Z,16.00
2018-04-30T10:55:45.959Z,16.10
2018-04-30T10:58:14.439Z,16.10
2018-04-30T11:00:42.785Z,16.10
2018-04-30T11:03:11.132Z,16.00
2018-04-30T11:05:39.525Z,15.90
2018-04-30T11:08:07.879Z,15.80
2018-04-30T11:10:36.230Z,15.70
2018-04-30T11:13:05.347Z,15.60
2018-04-30T11:15:33.686Z,15.50
2018-04-30T11:18:02.047Z,15.50
2018-04-30T11:20:30.443Z,15.50
2018-04-30T11:22:58.794Z,15.50
2018-04-30T11:25:27.181Z,15.40
2018-04-30T11:27:55.524Z,15.40
2018-04-30T11:30:24.674Z,15.60
2018-04-30T11:32:53.062Z,15.50
2018-04-30T11:35:21.469Z,15.70
2018-04-30T11:37:50.593Z,15.80
2018-04-30T11:40:18.947Z,15.80
2018-04-30T11:42:48.058Z,15.70
2018-04-30T11:45:16.407Z,15.60
2018-04-30T11:47:44.759Z,15.60
2018-04-30T11:50:13.286Z,15.60
2018-04-30T11:52:42.434Z,15.60
2018-04-30T11:55:11.534Z,15.60
2018-04-30T11:57:39.876Z,15.90
2018-04-30T12:00:08.209Z,16.30
2018-04-30T12:02:36.579Z,16.80
2018-04-30T12:05:04.993Z,17.30
2018-04-30T12:07:33.328Z,17.40
2018-04-30T12:10:01.679Z,17.40
2018-04-30T12:12:30.075Z,17.40
2018-04-30T12:14:58.455Z,17.40
2018-04-30T12:17:26.834Z,17.40
2018-04-30T12:19:55.180Z,17.20
2018-04-30T12:22:23.590Z,17.10
2018-04-30T12:24:51.947Z,17.00
2018-04-30T12:27:20.337Z,17.10
2018-04-30T12:29:48.849Z,17.00
2018-04-30T12:32:17.577Z,17.00
2018-04-30T12:34:45.936Z,17.50
2018-04-30T12:37:14.346Z,18.10
2018-04-30T12:39:43.461Z,19.40
2018-04-30T12:42:11.813Z,19.40
2018-04-30T12:44:41.440Z,19.10
2018-04-30T12:47:10.251Z,19.10
2018-04-30T12:49:39.332Z,18.40
2018-04-30T12:52:07.638Z,17.90
2018-04-30T12:54:36.416Z,17.40
2018-04-30T12:57:04.839Z,17.00
2018-04-30T12:59:34.089Z,16.60
2018-04-30T13:02:02.468Z,16.60
2018-04-30T13:04:30.810Z,16.60
2018-04-30T13:07:00.214Z,16.50
2018-04-30T13:09:28.597Z,16.50
2018-04-30T13:11:57.720Z,16.50
2018-04-30T13:14:26.061Z,16.40
2018-04-30T13:16:55.191Z,16.50
2018-04-30T13:19:23.518Z,16.50
2018-04-30T13:21:51.991Z,16.50
2018-04-30T13:24:21.287Z,16.80
2018-04-30T13:26:49.796Z,16.80
2018-04-30T13:29:18.137Z,16.90
2018-04-30T13:31:46.519Z,17.30
2018-04-30T13:34:15.036Z,17.60
2018-04-30T13:36:43.372Z,18.00
2018-04-30T13:39:13.557Z,18.00
2018-04-30T13:41:43.263Z,17.90
2018-04-30T13:44:12.383Z,17.70
2018-04-30T13:46:40.827Z,17.70
2018-04-30T13:49:09.188Z,17.70
2018-04-30T13:51:37.588Z,17.80
2018-04-30T13:54:05.953Z,18.10
2018-04-30T13:56:34.303Z,18.80
2018-04-30T13:59:02.655Z,19.10
2018-04-30T14:01:31.113Z,19.40
2018-04-30T14:03:59.430Z,20.00
2018-04-30T14:06:28.777Z,20.30
2018-04-30T14:08:57.296Z,20.30
2018-04-30T14:11:25.695Z,20.20
2018-04-30T14:13:54.080Z,20.10
2018-04-30T14:16:22.452Z,19.90
2018-04-30T14:18:50.808Z,19.70
2018-04-30T14:21:19.167Z,19.90
2018-04-30T14:23:48.343Z,19.80
2018-04-30T14:26:16.972Z,19.80
2018-04-30T14:28:45.673Z,20.00
2018-04-30T14:31:14.050Z,19.70
2018-04-30T14:33:42.432Z,19.90
2018-04-30T14:36:10.926Z,19.90
2018-04-30T14:38:39.295Z,20.00
2018-04-30T14:41:07.718Z,20.00
2018-04-30T14:43:36.073Z,19.70
2018-04-30T14:46:04.402Z,19.50
2018-04-30T14:48:33.070Z,19.30
2018-04-30T14:51:01.647Z,19.10
2018-04-30T14:53:30.194Z,19.10
2018-04-30T14:55:58.541Z,18.90
2018-04-30T14:58:26.920Z,19.10
2018-04-30T15:00:55.335Z,19.20
2018-04-30T15:03:23.722Z,19.00
2018-04-30T15:05:52.175Z,18.80
2018-04-30T15:08:20.641Z,18.70
2018-04-30T15:10:49.768Z,19.50
2018-04-30T15:13:18.183Z,19.60
2018-04-30T15:15:46.548Z,20.10
2018-04-30T15:18:15.112Z,20.50
2018-04-30T15:20:43.488Z,21.00
2018-04-30T15:23:11.911Z,21.50
2018-04-30T15:25:40.268Z,21.60
2018-04-30T15:28:08.653Z,21.80
2018-04-30T15:30:37.583Z,21.90
2018-04-30T15:33:06.824Z,21.70
2018-04-30T15:35:35.217Z,21.70
2018-04-30T15:38:04.300Z,21.40
2018-04-30T15:40:32.654Z,21.40
2018-04-30T15:43:01.067Z,20.70
2018-04-30T15:45:29.413Z,20.30
2018-04-30T15:47:57.749Z,19.60
2018-04-30T15:50:26.250Z,19.30
2018-04-30T15:52:55.370Z,19.70
2018-04-30T15:55:23.843Z,19.60
2018-04-30T15:57:52.948Z,19.00
2018-04-30T16:00:21.438Z,19.00
2018-04-30T16:02:49.930Z,19.20
2018-04-30T16:05:18.476Z,19.50
2018-04-30T16:07:47.570Z,20.10
2018-04-30T16:10:16.705Z,20.40
2018-04-30T16:12:45.084Z,20.40
2018-04-30T16:15:13.492Z,21.00
2018-04-30T16:17:41.844Z,21.50
2018-04-30T16:20:11.263Z,21.60
2018-04-30T16:22:39.593Z,22.10
2018-04-30T16:25:07.962Z,21.90
2018-04-30T16:27:37.122Z,21.40
2018-04-30T16:30:05.692Z,21.40
2018-04-30T16:32:34.051Z,20.40
2018-04-30T16:35:02.381Z,20.30
2018-04-30T16:37:30.793Z,20.50
2018-04-30T16:39:59.883Z,20.80
2018-04-30T16:42:29.070Z,20.70
2018-04-30T16:44:57.566Z,20.70
2018-04-30T16:47:26.713Z,19.90
2018-04-30T16:49:55.087Z,19.90
2018-04-30T16:52:24.435Z,20.30
2018-04-30T16:54:53.557Z,20.90
2018-04-30T16:57:22.063Z,20.90
2018-04-30T16:59:50.584Z,21.50
2018-04-30T17:02:18.929Z,21.50
2018-04-30T17:04:47.407Z,21.80
2018-04-30T17:07:15.784Z,21.70
2018-04-30T17:09:44.175Z,21.60
2018-04-30T17:12:12.514Z,21.40
2018-04-30T17:14:40.862Z,21.20
2018-04-30T17:17:09.519Z,20.60
2018-04-30T17:19:38.009Z,20.10
2018-04-30T17:22:06.416Z,19.60
2018-04-30T17:24:34.845Z,19.30
2018-04-30T17:27:03.187Z,18.90
2018-04-30T17:29:32.319Z,18.10
2018-04-30T17:32:00.702Z,18.00
2018-04-30T17:34:29.046Z,17.80
2018-04-30T17:36:58.302Z,17.60
2018-04-30T17:39:26.868Z,17.70
2018-04-30T17:41:55.312Z,17.40
2018-04-30T17:44:24.438Z,17.00
2018-04-30T17:46:52.809Z,17.00
2018-04-30T17:49:21.146Z,16.90
2018-04-30T17:51:50.403Z,16.70
2018-04-30T17:54:18.787Z,16.70
2018-04-30T17:56:47.943Z,16.70
2018-04-30T17:59:17.308Z,16.50
2018-04-30T18:01:45.731Z,16.50
2018-04-30T18:04:14.295Z,16.50
2018-04-30T18:06:42.967Z,16.40
2018-04-30T18:09:12.225Z,16.40
2018-04-30T18:11:40.576Z,16.40
2018-04-30T18:14:09.801Z,16.30
2018-04-30T18:16:38.397Z,16.30
2018-04-30T18:19:06.869Z,16.30
2018-04-30T18:21:35.383Z,16.30
2018-04-30T18:24:03.870Z,16.20
2018-04-30T18:26:33.472Z,16.20
2018-04-30T18:29:02.021Z,16.10
2018-04-30T18:31:31.342Z,16.00
2018-04-30T18:33:59.770Z,16.00
2018-04-30T18:36:28.132Z,16.00
2018-04-30T18:38:56.619Z,15.90
2018-04-30T18:41:24.978Z,16.00
2018-04-30T18:43:53.341Z,15.90
2018-04-30T18:46:21.720Z,15.80
2018-04-30T18:48:50.120Z,15.90
2018-04-30T18:51:18.640Z,15.80
2018-04-30T18:53:47.852Z,15.80
2018-04-30T18:56:16.206Z,15.70
2018-04-30T18:58:45.415Z,15.60
2018-04-30T19:01:14.644Z,15.50
2018-04-30T19:03:42.997Z,15.50
2018-04-30T19:06:11.400Z,15.50
2018-04-30T19:08:39.742Z,15.40
2018-04-30T19:11:08.254Z,15.40
2018-04-30T19:13:36.607Z,15.30
2018-04-30T19:16:05.725Z,15.10
2018-04-30T19:18:34.091Z,15.10
2018-04-30T19:21:02.682Z,15.00
2018-04-30T19:23:31.788Z,14.80
2018-04-30T19:26:00.290Z,14.80
2018-04-30T19:28:32.843Z,14.80
2018-04-30T19:31:02.209Z,14.70
2018-04-30T19:33:30.570Z,14.60
2018-04-30T19:35:58.987Z,14.60
2018-04-30T19:38:28.254Z,14.40
2018-04-30T19:40:56.607Z,14.40
2018-04-30T19:43:24.986Z,14.40
2018-04-30T19:45:53.407Z,14.40
2018-04-30T19:48:21.899Z,14.30
2018-04-30T19:50:51.059Z,14.20
2018-04-30T19:53:19.436Z,14.20
2018-04-30T19:55:48.021Z,14.20
2018-04-30T19:58:17.249Z,14.10
2018-04-30T20:00:45.627Z,14.00
2018-04-30T20:03:14.081Z,14.00
2018-04-30T20:05:42.527Z,13.90
2018-04-30T20:08:11.016Z,13.90
2018-04-30T20:10:39.482Z,13.80
2018-04-30T20:13:08.355Z,13.80
2018-04-30T20:15:37.551Z,13.60
2018-04-30T20:18:05.964Z,13.60
2018-04-30T20:20:34.362Z,13.50
2018-04-30T20:23:02.726Z,13.50
2018-04-30T20:25:31.101Z,13.40
2018-04-30T20:27:59.476Z,13.40
2018-04-30T20:30:27.877Z,13.30
2018-04-30T20:32:56.316Z,13.30
2018-04-30T20:35:24.637Z,13.30
2018-04-30T20:37:53.033Z,13.20
2018-04-30T20:40:21.372Z,13.20
2018-04-30T20:42:50.169Z,13.10
2018-04-30T20:45:18.554Z,13.10
2018-04-30T20:47:47.103Z,13.00
2018-04-30T20:50:15.468Z,13.00
2018-04-30T20:52:43.910Z,12.90
2018-04-30T20:55:12.390Z,12.90
2018-04-30T20:57:41.679Z,12.90
2018-04-30T21:00:10.374Z,12.90
2018-04-30T21:02:39.442Z,12.80
2018-04-30T21:05:08.996Z,12.80
2018-04-30T21:07:37.445Z,12.80
2018-04-30T21:10:05.896Z,12.80
2018-04-30T21:12:35.873Z,12.70
2018-04-30T21:15:04.249Z,12.70
2018-04-30T21:17:32.833Z,12.70
2018-04-30T21:20:01.094Z,12.70
2018-04-30T21:22:29.445Z,12.60
2018-04-30T21:24:58.614Z,12.60
2018-04-30T21:27:27.067Z,12.60
2018-04-30T21:29:55.419Z,12.60
2018-04-30T21:32:23.826Z,12.60
2018-04-30T21:34:52.168Z,12.60
2018-04-30T21:37:20.515Z,12.50
2018-04-30T21:39:49.057Z,12.50
2018-04-30T21:42:17.393Z,12.50
2018-04-30T21:44:45.744Z,12.50
2018-04-30T21:47:14.371Z,12.50
2018-04-30T21:49:42.732Z,12.70
2018-04-30T21:52:11.833Z,12.80
2018-04-30T21:54:40.453Z,12.70
2018-04-30T21:57:08.849Z,12.80
2018-04-30T21:59:37.587Z,12.80
2018-04-30T22:02:06.773Z,12.70
2018-04-30T22:04:40.262Z,12.80
2018-04-30T22:07:08.677Z,12.70
2018-04-30T22:09:37.498Z,12.80
2018-04-30T22:12:05.949Z,12.80
2018-04-30T22:14:34.217Z,12.90
2018-04-30T22:17:03.347Z,13.00
2018-04-30T22:19:32.341Z,13.00
2018-04-30T22:22:00.675Z,13.00
2018-04-30T22:24:29.082Z,13.10
2018-04-30T22:26:57.438Z,13.10
2018-04-30T22:29:26.626Z,13.10
2018-04-30T22:31:55.278Z,13.10
2018-04-30T22:34:23.611Z,13.10
2018-04-30T22:36:52.070Z,13.10
2018-04-30T22:39:20.761Z,13.00
2018-04-30T22:41:50.213Z,12.90
2018-04-30T22:44:18.689Z,12.80
2018-04-30T22:46:47.954Z,12.80
2018-04-30T22:49:17.073Z,12.70
2018-04-30T22:51:45.457Z,12.70
2018-04-30T22:54:14.615Z,12.70
2018-04-30T22:56:43.838Z,12.70
2018-04-30T22:59:12.177Z,12.60
2018-04-30T23:01:40.511Z,12.70
2018-04-30T23:04:08.870Z,12.70
2018-04-30T23:06:37.593Z,12.80
2018-04-30T23:09:05.932Z,12.80
2018-04-30T23:11:35.070Z,12.80
2018-04-30T23:14:03.463Z,12.80
2018-04-30T23:16:31.823Z,12.80
2018-04-30T23:19:00.156Z,12.80
2018-04-30T23:21:29.330Z,12.80
2018-04-30T23:23:57.831Z,12.80
2018-04-30T23:26:26.222Z,12.80
2018-04-30T23:28:55.343Z,12.80
2018-04-30T23:31:23.735Z,12.80
2018-04-30T23:33:52.194Z,12.80
2018-04-30T23:36:20.608Z,12.70
2018-04-30T23:38:48.939Z,12.70
2018-04-30T23:41:18.067Z,12.70
2018-04-30T23:43:46.411Z,12.70
2018-04-30T23:46:15.555Z,12.70
2018-04-30T23:48:44.100Z,12.60
2018-04-30T23:51:12.599Z,12.60
2018-04-30T23:53:40.943Z,12.60
2018-04-30T23:56:10.139Z,12.50
2018-04-30T23:58:38.495Z,12.50
